Latest Coastal Weather Observations for Darwin

IDD60701

Issued at 7:35 pm CST Thursday 24 April 2014 (issued every 10 minutes, with the page automatically refreshed every 10 minutes)

About coastal observations | Map of coastal stations | Coastal observations for NT | Marine services | Other Formats
Station Details ID: 014015 Name: DARWIN AIRPORT Lat: -12.42 Lon: 130.89 Height: 30.4 m
Data from the previous 72 hours. | See also: Recent months at Darwin
Date/Time
CST
Temp

°C
Wind Pressure Rain
since 9am
mm
Weather Cloud Vis
km
Sea
Height
m
Swell
Dir
 
Speed
knots
Gust
knots
hPa Trend Height
m
Period
s
Dir
24/07:30pm 28.9 W 7 8 1007.0 - 0.0 - - 10 - - - -
24/07:00pm 29.2 W 6 8 1006.5 - 0.0 - - 10 - - - -
24/06:30pm 29.8 WNW 7 9 1006.1 - 0.0 - - 10 - - - -
24/06:00pm 30.0 WNW 9 11 1005.5 F 0.0 Fine Mostly cloudy 30 - - - -
24/05:30pm 30.8 WNW 10 11 1005.4 - 0.0 - - 10 - - - -
24/05:00pm 31.2 WNW 11 14 1005.2 - 0.0 - - 10 - - - -
24/04:30pm 33.5 SW 6 8 1005.1 - 0.0 - - 10 - - - -
24/04:00pm 33.7 SE 5 7 1005.3 - 0.0 - - 10 - - - -
24/03:30pm 33.8 SSE 5 8 1005.5 - 0.0 - - 10 - - - -
24/03:00pm 33.7 S 8 11 1005.5 S 0.0 Fine Mostly cloudy 30 - - - -
24/02:30pm 33.7 SSE 8 12 1006.1 - 0.0 - - 10 - - - -
24/02:00pm 33.3 SSE 8 13 1006.5 - 0.0 - - 10 - - - -
24/01:30pm 32.8 S 9 14 1006.8 - 0.0 - - 10 - - - -
24/01:00pm 32.7 SSE 12 16 1007.1 - 0.0 - Mostly clear 10 - - - -
24/12:30pm 32.2 S 10 15 1007.7 - 0.0 - Mostly clear 10 - - - -
24/12:00pm 31.9 S 10 14 1007.8 F 0.0 Fine Mostly cloudy 30 - - - -
24/11:30am 31.8 SSE 10 16 1008.9 - 0.0 - Mostly clear 10 - - - -
24/11:00am 31.2 SSE 10 14 1009.5 - 0.0 - Mostly clear 10 - - - -
24/10:30am 30.4 SSE 10 14 1010.0 - 0.0 - Mostly clear 10 - - - -
24/10:00am 29.4 SSE 10 15 1010.0 - 0.0 - Mostly clear 10 - - - -
24/09:30am 29.2 SSE 9 11 1009.9 - 0.0 - Mostly clear 10 - - - -
24/09:00am 28.1 SSE 8 12 1009.4 R 0.0 Fine Mostly cloudy 30 - - - -
24/08:30am 27.2 SSE 7 9 1009.1 - 0.0 - - 10 - - - -
24/08:00am 26.4 SE 7 8 1008.9 - 0.0 - - 10 - - - -
24/07:30am 25.8 SE 6 8 1008.1 - 0.0 - Mostly clear 10 - - - -
24/07:00am 25.6 SE 5 7 1007.6 - 0.0 - - 10 - - - -
24/06:30am 25.6 SSE 6 8 1007.2 - 0.0 - - 10 - - - -
24/06:00am 25.8 SSE 6 6 1006.7 R 0.0 Fine Partly cloudy 30 - - - -
24/05:30am 26.0 ESE 6 7 1006.7 - 0.0 - - 10 - - - -
24/05:00am 25.6 E 6 6 1006.7 - 0.0 - - 10 - - - -
24/04:30am 25.6 ESE 5 5 1006.6 - 0.0 - - 10 - - - -
24/04:00am 26.1 ESE 4 5 1006.6 - 0.0 - - 10 - - - -
24/03:30am 26.0 ESE 4 5 1006.6 - 0.0 - - 10 - - - -
24/03:00am 26.4 E 5 5 1006.4 F 0.0 Fine Partly cloudy 30 - - - -
24/02:30am 26.6 E 6 7 1006.9 - 0.0 - - 10 - - - -
24/02:00am 26.6 E 7 9 1007.1 - 0.0 - - 10 - - - -
24/01:30am 26.7 E 7 9 1007.7 - 0.0 - - 10 - - - -
24/01:00am 27.4 E 6 9 1007.7 - 0.0 - Partly cloudy 10 - - - -
24/12:30am 27.7 S 6 7 1008.2 - 0.0 - Partly cloudy 10 - - - -
24/12:00am 27.7 SE 5 6 1008.0 F 0.0 Fine Partly cloudy 30 - - - -
 
Date/Time
CST
Temp

°C
Wind Pressure Rain
since 9am
mm
Weather Cloud Vis
km
Sea
Height
m
Swell
Dir
 
Speed
knots
Gust
knots
hPa Trend Height
m
Period
s
Dir
23/11:30pm 28.3 SW 6 7 1008.2 - 0.0 - Partly cloudy 10 - - - -
23/11:00pm 27.2 CALM 0 0 1008.6 - 0.0 - Partly cloudy 10 - - - -
23/10:30pm 27.2 NW 3 4 1008.8 - 0.0 - - 10 - - - -
23/10:00pm 27.4 NW 4 5 1008.8 - 0.0 - Partly cloudy 10 - - - -
23/09:30pm 27.6 N 4 5 1008.8 - 0.0 - Partly cloudy 10 - - - -
23/09:00pm 28.1 WNW 4 5 1008.1 R 0.0 Fine Mostly cloudy 30 - - - -
23/08:30pm 28.9 W 5 6 1007.6 - 0.0 - Partly cloudy 10 - - - -
23/08:00pm 29.1 NNW 5 6 1007.2 - 0.0 - - 10 - - - -
23/07:30pm 29.2 N 5 6 1007.1 - 0.0 - Partly cloudy 10 - - - -
23/07:00pm 29.2 N 10 12 1007.0 - 0.0 - - 10 - - - -
23/06:30pm 29.7 N 10 15 1006.6 - 0.0 - Mostly clear 10 - - - -
23/06:00pm 30.3 N 10 11 1005.9 R 0.0 Distant precip. Mostly cloudy 30 - - - -
23/05:30pm 30.9 N 10 12 1005.6 - 0.0 - Partly cloudy 10 - - - -
23/05:00pm 33.1 NE 7 10 1005.2 - 0.0 - Partly cloudy 10 - - - -
23/04:30pm 33.5 SSE 9 13 1005.1 - 0.0 - Mostly clear 10 - - - -
23/04:00pm 32.9 SE 8 11 1005.2 - 0.0 - Partly cloudy 10 - - - -
23/03:30pm 33.8 SE 10 14 1005.3 - 0.0 - Partly cloudy 10 - - - -
23/03:00pm 33.3 SSE 10 15 1005.3 F 0.0 Fine Mostly cloudy 30 - - - -
23/02:30pm 33.3 S 7 11 1006.1 - 0.0 - Partly cloudy 10 - - - -
23/02:00pm 33.5 S 9 13 1006.4 - 0.0 - - 10 - - - -
23/01:30pm 33.3 SE 10 12 1006.8 - 0.0 - Mostly clear 10 - - - -
23/01:00pm 32.5 S 13 19 1007.3 - 0.0 - Mostly clear 10 - - - -
23/12:30pm 32.6 S 12 16 1007.5 - 0.0 - Mostly clear 10 - - - -
23/12:00pm 32.0 SE 13 16 1007.7 F 0.0 Fine Mostly cloudy 30 - - - -
23/11:30am 31.2 SSE 13 17 1008.6 - 0.0 - Mostly clear 10 - - - -
23/11:00am 31.1 SSE 9 14 1009.2 - 0.0 - Mostly clear 10 - - - -
23/10:30am 29.9 SE 10 13 1009.6 - 0.0 - Mostly clear 10 - - - -
23/10:00am 29.2 SE 10 14 1009.7 - 0.0 - Mostly clear 10 - - - -
23/09:30am 28.7 SSE 9 12 1009.8 - 0.0 - Mostly clear 10 - - - -
23/09:00am 27.9 SE 9 12 1009.6 F 0.0 Fine Mostly cloudy 30 - - - -
23/08:30am 27.2 SE 7 9 1009.8 - 0.0 - Mostly clear 10 - - - -
23/08:00am 26.6 ESE 6 8 1009.7 - 0.0 - Mostly clear 10 - - - -
23/07:30am 25.7 ESE 6 7 1009.5 - 0.0 - Mostly clear 10 - - - -
23/07:00am 25.1 ESE 6 6 1009.3 - 0.0 - Mostly clear 10 - - - -
23/06:30am 25.0 SE 5 6 1009.0 - 0.0 - Mostly clear 10 - - - -
23/06:00am 24.5 ESE 4 5 1008.7 R 0.0 Fine Mostly cloudy 30 - - - -
23/05:30am 25.6 SSE 5 6 1008.8 - 0.0 - - 10 - - - -
23/05:00am 26.1 SE 6 7 1008.6 - 0.0 - - 10 - - - -
23/04:30am 26.0 SE 5 6 1008.6 - 0.0 - - 10 - - - -
23/04:00am 26.2 E 6 6 1008.2 - 0.0 - - 10 - - - -
23/03:30am 26.6 ESE 6 7 1008.0 - 0.0 - - 10 - - - -
23/03:00am 27.1 SE 7 8 1007.7 F 0.0 Fine Mostly clear 30 - - - -
23/02:30am 26.8 SSE 6 7 1008.3 - 0.0 - - 10 - - - -
23/02:00am 26.2 SSE 4 5 1008.4 - 0.0 - - 10 - - - -
23/01:30am 26.0 ESE 1 3 1008.9 - 0.0 - - 10 - - - -
23/01:00am 26.2 CALM 0 2 1009.4 - 0.0 - - 10 - - - -
23/12:30am 26.2 WSW 4 4 1009.8 - 0.0 - - 10 - - - -
23/12:00am 27.3 W 4 4 1009.6 R 0.0 Fine Clear 30 - - - -
 
Date/Time
CST
Temp

°C
Wind Pressure Rain
since 9am
mm
Weather Cloud Vis
km
Sea
Height
m
Swell
Dir
 
Speed
knots
Gust
knots
hPa Trend Height
m
Period
s
Dir
22/11:30pm 26.6 N 3 4 1010.4 - 0.0 - - 10 - - - -
22/11:00pm 27.0 NNW 5 8 1010.4 - 0.0 - - 10 - - - -
22/10:30pm 27.5 NNW 6 7 1010.4 - 0.0 - Partly cloudy 10 - - - -
22/10:00pm 28.0 NNE 5 6 1010.3 - 0.0 - Partly cloudy 10 - - - -
22/09:30pm 27.4 S 5 7 1009.8 - 0.0 - - 10 - - - -
22/09:00pm 28.7 S 5 6 1009.0 F 0.0 Fine Partly cloudy 30 - - - -
22/08:30pm 28.5 ESE 3 4 1009.2 - 0.0 - Partly cloudy 10 - - - -
22/08:00pm 28.8 E 3 3 1009.0 - 0.0 - Cloudy 10 - - - -
22/07:30pm 28.8 E 3 4 1008.6 - 0.0 - Cloudy 10 - - - -
22/07:00pm 29.4 E 5 5 1008.3 - 0.0 - Partly cloudy 10 - - - -
22/06:30pm 31.4 ESE 7 8 1007.9 - 0.0 - - 10 - - - -
22/06:00pm 32.2 ESE 9 11 1007.3 R 0.0 Fine Mostly cloudy 30 - - - -
22/05:30pm 32.8 ESE 10 13 1007.3 - 0.0 - - 10 - - - -
22/05:00pm 33.0 E 11 16 1007.0 - 0.0 - - 10 - - - -
22/04:30pm 33.3 SE 8 13 1006.7 - 0.0 - - 10 - - - -
22/04:00pm 33.2 SE 12 17 1006.5 - 0.0 - Mostly clear 10 - - - -
22/03:30pm 33.3 SSE 12 18 1006.5 - 0.0 - Mostly clear 10 - - - -
22/03:00pm 33.0 SE 11 17 1006.7 F 0.0 Fine Mostly cloudy 30 - - - -
22/02:30pm 32.7 SSE 7 10 1007.4 - 0.0 - Mostly clear 10 - - - -
22/02:00pm 32.2 S 8 10 1007.8 - 0.0 - Mostly clear 10 - - - -
22/01:30pm 31.6 ESE 11 16 1008.6 - 0.0 - Mostly clear 10 - - - -
22/01:00pm 31.2 ESE 15 18 1009.1 - 0.0 - Mostly clear 10 - - - -
22/12:30pm 31.0 ESE 15 20 1009.7 - 0.0 - Mostly clear 10 - - - -
22/12:00pm 30.7 SSE 12 16 1009.7 F 0.0 Fine Mostly cloudy 30 - - - -
22/11:30am 31.0 SE 11 16 1010.8 - 0.0 - - 10 - - - -
22/11:00am 30.1 E 12 15 1011.2 - 0.0 - - 10 - - - -
22/10:30am 30.0 ESE 10 14 1011.6 - 0.0 - - 10 - - - -
22/10:00am 29.4 E 11 15 1011.8 - 0.0 - - 10 - - - -
22/09:30am 29.0 E 12 16 1011.7 - 0.0 - - 10 - - - -
22/09:00am 28.2 E 10 14 1011.3 R 0.0 Fine Mostly cloudy 30 - - - -
22/08:30am 28.0 E 11 15 1011.4 - 0.0 - - 10 - - - -
22/08:00am 27.3 E 9 11 1011.2 - 0.0 - Mostly clear 10 - - - -
22/07:30am 25.9 ESE 7 8 1010.8 - 0.0 - Mostly clear 10 - - - -
22/07:00am 25.1 SE 6 8 1010.4 - 0.0 - Mostly clear 10 - - - -
22/06:30am 25.2 SSE 6 7 1010.0 - 0.0 - Mostly clear 10 - - - -
22/06:00am 24.6 SE 5 5 1009.5 S 0.0 Fine Mostly cloudy 30 - - - -
22/05:30am 24.5 ESE 4 5 1009.7 - 0.0 - Mostly clear 10 - - - -
22/05:00am 25.4 SE 4 5 1009.5 - 0.0 - Mostly clear 10 - - - -
22/04:30am 24.6 SE 3 4 1009.4 - 0.0 - - 10 - - - -
22/04:00am 25.1 SSE 4 4 1009.5 - 0.0 - - 10 - - - -
22/03:30am 25.9 ESE 4 5 1009.5 - 0.0 - - 10 - - - -
22/03:00am 25.9 E 5 6 1009.3 F 0.0 Fine Mostly cloudy 30 - - - -
22/02:30am 25.7 ESE 6 9 1009.7 - 0.0 - - 10 - - - -
22/02:00am 25.8 S 4 5 1009.6 - 0.0 - - 10 - - - -
22/01:30am 26.3 S 4 5 1010.0 - 0.0 - - 10 - - - -
22/01:00am 26.8 SSW 5 5 1010.3 - 0.0 - - 10 - - - -
22/12:30am 26.8 S 5 6 1010.7 - 0.0 - - 10 - - - -
22/12:00am 27.3 S 7 8 1010.7 R 0.0 Fine Mostly cloudy 30 - - - -
 
Date/Time
CST
Temp

°C
Wind Pressure Rain
since 9am
mm
Weather Cloud Vis
km
Sea
Height
m
Swell
Dir
 
Speed
knots
Gust
knots
hPa Trend Height
m
Period
s
Dir
21/11:30pm 27.3 S 5 7 1011.1 - 0.0 - Partly cloudy 10 - - - -
21/11:00pm 26.7 S 5 5 1010.8 - 0.0 - Mostly clear 10 - - - -
21/10:30pm 26.0 CALM 0 0 1010.6 - 0.0 - Mostly clear 10 - - - -
21/10:00pm 26.2 NNE 2 3 1010.6 - 0.0 - Mostly clear 10 - - - -
21/09:30pm 26.4 NNE 2 4 1010.6 - 0.0 - Mostly clear 10 - - - -
21/09:00pm 26.7 NNE 4 5 1010.2 F 0.0 Fine Mostly cloudy 30 - - - -
21/08:30pm 27.1 NNE 4 5 1010.2 - 0.0 - Mostly clear 10 - - - -
21/08:00pm 27.6 NE 6 8 1009.9 - 0.0 - Mostly clear 10 - - - -

Other Formats:

Comma delimited format used in spreadsheet applications
http://www.bom.gov.au/fwo/IDD60701/IDD60701.94120.axf

JavaScript Object Notation format (JSON) in row-major order
http://www.bom.gov.au/fwo/IDD60701/IDD60701.94120.json